Terminal Aerodrome Forecast
Issued by NWS Paducah, KY

Home | Current Version | Previous Version | Text Only | Print | Product List | Glossary Off
Versions: 1 2 3 4 5 6 7 8 9 10 11 12 13 14 15 16 17 18 19

000
FTUS43 KPAH 031354 AAA
TAFEVV
TAF AMD
KEVV 031354Z 0314/0412 15006KT 4SM BR OVC012
      TEMPO 0314/0317 2SM -SHRA BR OVC006
     FM031700 19009KT 4SM -SHRA OVC006
     FM032000 21012G21KT 5SM -RA BR OVC005
     FM040000 23008KT 3SM -RA BR OVC004
     FM040600 32010KT 2SM -RA BR OVC003
     FM041100 35010G17KT 3SM -SN BR OVC003=

USA.gov is the U.S. government's official web portal to all federal, state and local government web resources and services.